createdAt,value
2017-11-18T00:00:24.028Z,8.77
2017-11-18T00:02:50.454Z,8.77
2017-11-18T00:05:17.612Z,8.75
2017-11-18T00:07:43.943Z,8.83
2017-11-18T00:10:10.373Z,8.89
2017-11-18T00:12:36.808Z,8.87
2017-11-18T00:15:03.139Z,8.84
2017-11-18T00:17:29.573Z,8.87
2017-11-18T00:19:56.009Z,8.86
2017-11-18T00:22:23.095Z,8.84
2017-11-18T00:24:49.465Z,8.84
2017-11-18T00:27:15.906Z,8.76
2017-11-18T00:29:42.349Z,8.78
2017-11-18T00:32:08.807Z,8.85
2017-11-18T00:34:35.180Z,8.75
2017-11-18T00:37:01.680Z,8.74
2017-11-18T00:39:28.847Z,8.74
2017-11-18T00:41:55.186Z,8.79
2017-11-18T00:44:21.695Z,8.82
2017-11-18T00:46:48.123Z,8.78
2017-11-18T00:49:14.528Z,8.85
2017-11-18T00:51:40.990Z,8.73
2017-11-18T00:54:07.428Z,8.84
2017-11-18T00:56:34.688Z,8.86
2017-11-18T00:59:01.125Z,8.88
2017-11-18T01:01:27.679Z,8.94
2017-11-18T01:03:54.086Z,8.99
2017-11-18T01:06:20.542Z,8.99
2017-11-18T01:08:46.963Z,9.08
2017-11-18T01:11:13.398Z,9.10
2017-11-18T01:13:40.477Z,9.06
2017-11-18T01:16:06.874Z,9.02
2017-11-18T01:18:33.309Z,9.02
2017-11-18T01:20:59.743Z,8.91
2017-11-18T01:23:26.178Z,8.81
2017-11-18T01:25:52.612Z,8.86
2017-11-18T01:28:19.049Z,8.87
2017-11-18T01:30:46.208Z,8.84
2017-11-18T01:33:12.642Z,8.83
2017-11-18T01:35:39.077Z,8.74
2017-11-18T01:38:05.502Z,8.77
2017-11-18T01:40:31.936Z,8.73
2017-11-18T01:42:58.493Z,8.77
2017-11-18T01:45:24.832Z,8.69
2017-11-18T01:47:52.058Z,8.63
2017-11-18T01:50:18.394Z,8.70
2017-11-18T01:52:44.854Z,8.64
2017-11-18T01:55:11.261Z,8.65
2017-11-18T01:57:37.724Z,8.72
2017-11-18T02:00:04.140Z,8.78
2017-11-18T02:02:30.577Z,8.81
2017-11-18T02:04:57.720Z,8.79
2017-11-18T02:07:24.154Z,8.54
2017-11-18T02:09:50.551Z,8.60
2017-11-18T02:12:17.024Z,8.63
2017-11-18T02:14:43.459Z,8.71
2017-11-18T02:17:09.896Z,8.72
2017-11-18T02:19:36.264Z,8.78
2017-11-18T02:22:03.582Z,8.70
2017-11-18T02:24:29.913Z,8.64
2017-11-18T02:26:56.347Z,8.58
2017-11-18T02:29:22.781Z,8.62
2017-11-18T02:31:49.225Z,8.60
2017-11-18T02:34:15.654Z,8.62
2017-11-18T02:36:42.105Z,8.59
2017-11-18T02:39:09.342Z,8.62
2017-11-18T02:41:35.803Z,8.61
2017-11-18T02:44:02.219Z,8.57
2017-11-18T02:46:28.663Z,8.53
2017-11-18T02:48:55.190Z,8.57
2017-11-18T02:51:21.617Z,8.62
2017-11-18T02:53:47.988Z,8.62
2017-11-18T02:56:15.230Z,8.64
2017-11-18T02:58:41.746Z,8.65
2017-11-18T03:01:08.201Z,8.61
2017-11-18T03:03:34.720Z,8.58
2017-11-18T03:06:01.145Z,8.60
2017-11-18T03:08:27.579Z,8.53
2017-11-18T03:10:54.015Z,8.53
2017-11-18T03:13:21.174Z,8.54
2017-11-18T03:15:47.610Z,8.58
2017-11-18T03:18:14.044Z,8.60
2017-11-18T03:20:40.479Z,8.60
2017-11-18T03:23:06.907Z,8.62
2017-11-18T03:25:33.345Z,8.65
2017-11-18T03:27:59.679Z,8.66
2017-11-18T03:30:26.926Z,8.69
2017-11-18T03:32:53.330Z,8.63
2017-11-18T03:35:19.804Z,8.63
2017-11-18T03:37:46.229Z,8.62
2017-11-18T03:40:12.664Z,8.60
2017-11-18T03:42:39.097Z,8.61
2017-11-18T03:45:05.542Z,8.55
2017-11-18T03:47:32.685Z,8.57
2017-11-18T03:49:59.118Z,8.54
2017-11-18T03:52:25.553Z,8.53
2017-11-18T03:54:51.996Z,8.47
2017-11-18T03:57:18.367Z,8.45
2017-11-18T03:59:44.866Z,8.36
2017-11-18T04:02:11.292Z,8.43
2017-11-18T04:04:38.480Z,8.38
2017-11-18T04:07:04.816Z,8.35
2017-11-18T04:09:31.174Z,8.41
2017-11-18T04:11:57.655Z,8.50
2017-11-18T04:14:24.089Z,8.44
2017-11-18T04:16:50.492Z,8.42
2017-11-18T04:19:16.958Z,8.49
2017-11-18T04:21:44.100Z,8.40
2017-11-18T04:24:10.505Z,8.45
2017-11-18T04:26:36.868Z,8.42
2017-11-18T04:29:03.304Z,8.37
2017-11-18T04:31:29.739Z,8.38
2017-11-18T04:33:56.180Z,8.42
2017-11-18T04:36:22.727Z,8.40
2017-11-18T04:38:49.826Z,8.45
2017-11-18T04:41:16.268Z,8.45
2017-11-18T04:43:42.739Z,8.45
2017-11-18T04:46:09.210Z,8.54
2017-11-18T04:48:35.601Z,8.56
2017-11-18T04:51:02.033Z,8.59
2017-11-18T04:53:28.478Z,8.65
2017-11-18T04:55:55.620Z,8.67
2017-11-18T04:58:22.044Z,8.63
2017-11-18T05:00:48.491Z,8.60
2017-11-18T05:03:14.897Z,8.65
2017-11-18T05:05:41.389Z,8.72
2017-11-18T05:08:07.896Z,8.61
2017-11-18T05:10:34.339Z,8.69
2017-11-18T05:13:01.593Z,8.68
2017-11-18T05:15:28.020Z,8.66
2017-11-18T05:17:54.454Z,8.60
2017-11-18T05:20:20.888Z,8.59
2017-11-18T05:22:47.354Z,8.62
2017-11-18T05:25:13.870Z,8.58
2017-11-18T05:27:40.295Z,8.55
2017-11-18T05:30:07.465Z,8.56
2017-11-18T05:32:33.890Z,8.51
2017-11-18T05:35:00.316Z,8.52
2017-11-18T05:37:26.758Z,8.54
2017-11-18T05:39:53.185Z,8.54
2017-11-18T05:42:19.620Z,8.59
2017-11-18T05:44:46.063Z,8.60
2017-11-18T05:47:13.283Z,8.60
2017-11-18T05:49:39.732Z,8.62
2017-11-18T05:52:06.187Z,8.67
2017-11-18T05:54:32.612Z,8.71
2017-11-18T05:56:59.047Z,8.75
2017-11-18T05:59:25.482Z,8.76
2017-11-18T06:01:51.936Z,8.81
2017-11-18T06:04:19.069Z,8.86
2017-11-18T06:06:45.519Z,8.90
2017-11-18T06:09:11.946Z,8.85
2017-11-18T06:11:38.394Z,8.86
2017-11-18T06:14:04.772Z,8.89
2017-11-18T06:16:31.250Z,8.90
2017-11-18T06:18:57.676Z,8.91
2017-11-18T06:21:24.863Z,9.00
2017-11-18T06:23:51.263Z,8.99
2017-11-18T06:26:17.697Z,9.06
2017-11-18T06:28:44.135Z,9.01
2017-11-18T06:31:10.576Z,8.96
2017-11-18T06:51:16.877Z,8.90
2017-11-18T06:53:43.303Z,8.99
2017-11-18T06:56:09.739Z,8.98
2017-11-18T06:58:36.167Z,9.05
2017-11-18T07:01:02.603Z,9.09
2017-11-18T07:03:29.036Z,9.12
2017-11-18T07:05:55.787Z,9.13
2017-11-18T07:08:22.145Z,9.16
2017-11-18T07:10:48.552Z,9.22
2017-11-18T07:13:14.977Z,9.07
2017-11-18T07:15:41.448Z,9.23
2017-11-18T07:18:07.792Z,9.04
2017-11-18T07:20:34.187Z,9.02
2017-11-18T07:23:00.626Z,9.14
2017-11-18T07:25:27.057Z,9.25
2017-11-18T07:27:53.484Z,9.30
2017-11-18T07:30:19.956Z,9.32
2017-11-18T07:32:46.478Z,9.32
2017-11-18T07:35:13.000Z,9.40
2017-11-18T07:37:39.939Z,9.47
2017-11-18T07:40:06.382Z,9.43
2017-11-18T07:42:32.809Z,9.46
2017-11-18T07:44:59.242Z,9.46
2017-11-18T07:47:25.679Z,9.61
2017-11-18T07:49:52.133Z,9.62
2017-11-18T07:52:18.479Z,9.60
2017-11-18T07:54:44.849Z,9.63
2017-11-18T07:57:11.210Z,9.60
2017-11-18T07:59:37.646Z,9.69
2017-11-18T08:02:04.081Z,9.66
2017-11-18T08:04:30.518Z,9.69
2017-11-18T08:06:57.462Z,9.74
2017-11-18T08:09:23.897Z,9.72
2017-11-18T08:11:50.441Z,9.75
2017-11-18T08:14:17.380Z,9.81
2017-11-18T08:16:43.926Z,9.71
2017-11-18T08:19:10.457Z,9.66
2017-11-18T08:21:37.106Z,9.58
2017-11-18T08:24:03.639Z,9.55
2017-11-18T08:26:30.544Z,9.63
2017-11-18T08:28:57.636Z,9.61
2017-11-18T08:31:24.235Z,9.55
2017-11-18T08:33:50.862Z,9.34
2017-11-18T08:36:18.095Z,9.56
2017-11-18T08:38:44.812Z,9.42
2017-11-18T08:41:11.904Z,9.43
2017-11-18T08:43:38.629Z,9.42
2017-11-18T08:46:05.484Z,9.44
2017-11-18T08:48:31.980Z,9.50
2017-11-18T08:50:58.816Z,9.40
2017-11-18T08:53:25.251Z,9.41
2017-11-18T08:55:51.685Z,9.45
2017-11-18T08:58:18.602Z,9.47
2017-11-18T09:00:45.067Z,9.48
2017-11-18T09:03:11.540Z,9.45
2017-11-18T09:05:38.141Z,9.39
2017-11-18T09:08:04.520Z,9.25
2017-11-18T09:10:30.966Z,9.29
2017-11-18T09:12:57.967Z,9.17
2017-11-18T09:15:24.532Z,9.36
2017-11-18T09:17:51.110Z,9.34
2017-11-18T09:20:17.670Z,9.33
2017-11-18T09:22:44.208Z,9.43
2017-11-18T09:25:10.753Z,9.40
2017-11-18T09:27:37.180Z,9.43
2017-11-18T09:30:03.621Z,9.51
2017-11-18T09:32:30.048Z,9.47
2017-11-18T09:34:56.484Z,9.46
2017-11-18T09:37:22.919Z,9.55
2017-11-18T09:39:50.173Z,9.53
2017-11-18T09:42:16.609Z,9.57
2017-11-18T09:44:43.248Z,9.48
2017-11-18T09:47:09.894Z,9.57
2017-11-18T09:49:36.529Z,9.54
2017-11-18T09:52:02.902Z,9.60
2017-11-18T09:54:29.367Z,9.62
2017-11-18T09:56:55.936Z,9.52
2017-11-18T09:59:22.477Z,9.61
2017-11-18T10:01:48.912Z,9.53
2017-11-18T10:04:15.547Z,9.51
2017-11-18T10:06:41.977Z,9.45
2017-11-18T10:09:08.411Z,9.40
2017-11-18T10:11:35.154Z,9.41
2017-11-18T10:14:01.597Z,9.34
2017-11-18T10:16:28.029Z,9.47
2017-11-18T10:18:54.765Z,9.40
2017-11-18T10:21:21.209Z,9.47
2017-11-18T10:23:47.742Z,9.37
2017-11-18T10:26:14.686Z,9.36
2017-11-18T10:28:41.120Z,9.44
2017-11-18T10:31:07.553Z,9.37
2017-11-18T10:33:34.766Z,9.40
2017-11-18T10:36:01.244Z,9.31
2017-11-18T10:38:27.699Z,9.40
2017-11-18T10:40:54.055Z,9.44
2017-11-18T10:43:20.515Z,9.45
2017-11-18T10:45:46.991Z,9.47
2017-11-18T10:48:13.937Z,9.44
2017-11-18T10:50:40.361Z,9.38
2017-11-18T10:53:06.907Z,9.39
2017-11-18T10:55:33.653Z,9.34
2017-11-18T10:58:00.186Z,9.57
2017-11-18T11:00:26.612Z,9.57
2017-11-18T11:02:53.481Z,9.68
2017-11-18T11:05:20.003Z,9.64
2017-11-18T11:07:46.434Z,9.50
2017-11-18T11:10:13.170Z,9.65
2017-11-18T11:12:39.607Z,9.84
2017-11-18T11:15:06.032Z,9.85
2017-11-18T11:17:32.893Z,9.87
2017-11-18T11:19:59.429Z,9.86
2017-11-18T11:22:25.966Z,9.76
2017-11-18T11:24:53.234Z,9.76
2017-11-18T11:27:19.715Z,9.75
2017-11-18T11:29:46.162Z,9.80
2017-11-18T11:32:13.036Z,9.76
2017-11-18T11:34:39.463Z,9.77
2017-11-18T11:37:05.904Z,9.84
2017-11-18T11:39:32.546Z,9.87
2017-11-18T11:41:59.084Z,9.85
2017-11-18T11:44:25.620Z,9.84
2017-11-18T11:46:52.051Z,9.88
2017-11-18T11:49:18.684Z,9.84
2017-11-18T11:51:45.122Z,9.77
2017-11-18T11:54:11.556Z,9.71
2017-11-18T11:56:38.102Z,9.64
2017-11-18T11:59:04.530Z,9.72
2017-11-18T12:01:30.961Z,9.66
2017-11-18T12:03:57.918Z,9.72
2017-11-18T12:06:24.420Z,9.67
2017-11-18T12:08:50.866Z,9.67
2017-11-18T12:11:17.520Z,9.62
2017-11-18T12:13:43.976Z,9.64
2017-11-18T12:16:11.347Z,9.70
2017-11-18T12:18:37.828Z,9.74
2017-11-18T12:21:04.392Z,9.84
2017-11-18T12:23:30.921Z,9.88
2017-11-18T12:25:57.355Z,9.91
2017-11-18T12:28:23.790Z,9.91
2017-11-18T12:30:50.439Z,9.87
2017-11-18T12:33:16.872Z,9.82
2017-11-18T12:35:43.300Z,9.82
2017-11-18T12:38:09.743Z,9.76
2017-11-18T12:40:36.515Z,9.74
2017-11-18T12:43:02.849Z,9.69
2017-11-18T12:45:29.168Z,9.69
2017-11-18T12:47:55.677Z,9.72
2017-11-18T12:50:22.111Z,9.47
2017-11-18T12:52:48.475Z,9.56
2017-11-18T12:55:14.879Z,9.62
2017-11-18T12:57:41.313Z,9.57
2017-11-18T13:00:07.685Z,9.53
2017-11-18T13:02:34.080Z,9.57
2017-11-18T13:05:00.618Z,9.48
2017-11-18T13:07:27.053Z,9.51
2017-11-18T13:09:53.385Z,9.48
2017-11-18T13:12:19.922Z,9.51
2017-11-18T13:14:46.371Z,9.52
2017-11-18T13:17:12.778Z,9.56
2017-11-18T13:19:39.225Z,9.51
2017-11-18T13:22:05.714Z,9.55
2017-11-18T13:24:32.164Z,9.54
2017-11-18T13:26:58.622Z,9.44
2017-11-18T13:29:25.101Z,9.44
2017-11-18T13:31:51.501Z,9.43
2017-11-18T13:34:17.876Z,9.40
2017-11-18T13:36:44.268Z,9.39
2017-11-18T13:39:10.704Z,9.28
2017-11-18T13:41:37.145Z,9.24
2017-11-18T13:44:03.581Z,9.25
2017-11-18T13:46:30.015Z,9.29
2017-11-18T13:48:56.449Z,9.36
2017-11-18T13:51:22.885Z,9.19
2017-11-18T13:53:50.035Z,9.19
2017-11-18T13:56:16.463Z,9.15
2017-11-18T13:58:42.999Z,9.23
2017-11-18T14:01:09.434Z,9.29
2017-11-18T14:03:35.869Z,9.34
2017-11-18T14:06:02.312Z,9.35
2017-11-18T14:08:28.886Z,9.30
2017-11-18T14:10:55.973Z,9.31
2017-11-18T14:13:22.326Z,9.24
2017-11-18T14:15:48.768Z,9.20
2017-11-18T14:18:15.202Z,9.19
2017-11-18T14:20:41.567Z,9.26
2017-11-18T14:23:07.961Z,9.22
2017-11-18T14:25:34.406Z,9.11
2017-11-18T14:28:01.620Z,9.13
2017-11-18T14:30:28.092Z,9.15
2017-11-18T14:32:54.493Z,9.16
2017-11-18T14:35:20.954Z,9.19
2017-11-18T14:37:47.319Z,9.25
2017-11-18T14:40:13.651Z,9.29
2017-11-18T14:42:40.052Z,9.30
2017-11-18T14:45:07.204Z,9.29
2017-11-18T14:47:33.731Z,9.28
2017-11-18T14:50:00.175Z,9.31
2017-11-18T14:52:26.628Z,9.31
2017-11-18T14:54:52.980Z,9.31
2017-11-18T14:57:19.377Z,9.35
2017-11-18T14:59:45.821Z,9.39
2017-11-18T15:02:12.986Z,9.42
2017-11-18T15:04:39.376Z,9.45
2017-11-18T15:07:05.794Z,9.48
2017-11-18T15:09:32.270Z,9.47
2017-11-18T15:11:58.704Z,9.45
2017-11-18T15:14:25.136Z,9.32
2017-11-18T15:16:51.469Z,9.46
2017-11-18T15:19:18.837Z,9.46
2017-11-18T15:21:45.268Z,9.41
2017-11-18T15:24:11.658Z,9.43
2017-11-18T15:26:38.148Z,9.40
2017-11-18T15:29:04.532Z,9.40
2017-11-18T15:31:31.003Z,9.41
2017-11-18T15:33:57.374Z,9.37
2017-11-18T15:36:24.687Z,9.38
2017-11-18T15:38:51.131Z,9.39
2017-11-18T15:41:17.577Z,9.38
2017-11-18T15:43:43.993Z,9.39
2017-11-18T15:46:10.361Z,9.39
2017-11-18T15:48:36.758Z,9.37
2017-11-18T15:51:03.134Z,9.37
2017-11-18T15:53:30.276Z,9.36
2017-11-18T15:55:56.787Z,9.38
2017-11-18T15:58:23.215Z,9.37
2017-11-18T16:00:49.657Z,9.29
2017-11-18T16:03:16.083Z,9.36
2017-11-18T16:05:42.528Z,9.38
2017-11-18T16:08:08.912Z,9.35
2017-11-18T16:10:36.207Z,9.29
2017-11-18T16:13:02.649Z,9.25
2017-11-18T16:15:29.008Z,9.26
2017-11-18T16:17:55.409Z,9.30
2017-11-18T16:20:21.849Z,9.31
2017-11-18T16:22:48.276Z,9.35
2017-11-18T16:25:14.712Z,9.24
2017-11-18T16:27:41.965Z,9.38
2017-11-18T16:30:08.400Z,9.39
2017-11-18T16:32:34.839Z,9.39
2017-11-18T16:35:01.163Z,9.37
2017-11-18T16:37:27.604Z,9.35
2017-11-18T16:39:54.042Z,9.34
2017-11-18T16:42:20.480Z,9.34
2017-11-18T16:44:47.621Z,9.36
2017-11-18T16:47:14.058Z,9.33
2017-11-18T16:49:40.503Z,9.33
2017-11-18T16:52:06.936Z,9.34
2017-11-18T16:54:33.262Z,9.33
2017-11-18T16:56:59.633Z,9.39
2017-11-18T16:59:25.992Z,9.40
2017-11-18T17:01:53.308Z,9.39
2017-11-18T17:04:19.669Z,9.42
2017-11-18T17:06:46.013Z,9.42
2017-11-18T17:09:12.496Z,9.44
2017-11-18T17:11:38.926Z,9.44
2017-11-18T17:14:05.352Z,9.46
2017-11-18T17:16:31.798Z,9.46
2017-11-18T17:18:58.834Z,9.43
2017-11-18T17:21:25.269Z,9.40
2017-11-18T17:23:51.706Z,9.39
2017-11-18T17:26:18.141Z,9.38
2017-11-18T17:28:44.539Z,9.34
2017-11-18T17:31:10.860Z,9.32
2017-11-18T17:33:37.197Z,9.31
2017-11-18T17:36:04.493Z,9.29
2017-11-18T17:38:30.935Z,9.14
2017-11-18T17:40:57.362Z,9.33
2017-11-18T17:43:23.919Z,9.28
2017-11-18T17:45:50.315Z,9.13
2017-11-18T17:48:16.764Z,9.22
2017-11-18T17:50:43.201Z,9.24
2017-11-18T17:53:10.318Z,9.25
2017-11-18T17:55:36.757Z,9.24
2017-11-18T17:58:03.155Z,9.28
2017-11-18T18:00:29.555Z,9.28
2017-11-18T18:02:56.009Z,9.29
2017-11-18T18:05:22.424Z,9.33
2017-11-18T18:07:48.869Z,9.33
2017-11-18T18:10:16.010Z,9.35
2017-11-18T18:12:42.454Z,9.33
2017-11-18T18:15:08.880Z,9.33
2017-11-18T18:17:35.212Z,9.33
2017-11-18T18:20:01.585Z,9.30
2017-11-18T18:22:28.053Z,9.29
2017-11-18T18:24:54.489Z,9.16
2017-11-18T18:27:21.606Z,9.29
2017-11-18T18:29:47.999Z,9.29
2017-11-18T18:32:14.368Z,9.29
2017-11-18T18:34:40.766Z,9.35
2017-11-18T18:37:07.201Z,9.37
2017-11-18T18:39:33.636Z,9.38
2017-11-18T18:41:59.968Z,9.40
2017-11-18T18:44:27.202Z,9.38
2017-11-18T18:46:53.623Z,9.33
2017-11-18T18:49:20.100Z,9.37
2017-11-18T18:51:46.527Z,9.39
2017-11-18T18:54:12.961Z,9.17
2017-11-18T18:56:39.410Z,9.38
2017-11-18T18:59:05.942Z,9.38
2017-11-18T19:01:33.003Z,9.41
2017-11-18T19:03:59.342Z,9.41
2017-11-18T19:06:25.851Z,9.41
2017-11-18T19:08:52.310Z,9.44
2017-11-18T19:11:18.726Z,9.45
2017-11-18T19:13:45.155Z,9.46
2017-11-18T19:16:11.701Z,9.46
2017-11-18T19:18:38.741Z,9.42
2017-11-18T19:21:05.176Z,9.42
2017-11-18T19:23:31.610Z,9.42
2017-11-18T19:25:58.045Z,9.44
2017-11-18T19:28:24.481Z,9.41
2017-11-18T19:30:50.914Z,9.39
2017-11-18T19:33:17.288Z,9.37
2017-11-18T19:35:44.511Z,9.20
2017-11-18T19:38:10.940Z,9.29
2017-11-18T19:40:37.306Z,9.30
2017-11-18T19:43:03.702Z,9.35
2017-11-18T19:45:30.146Z,9.39
2017-11-18T19:47:56.541Z,9.48
2017-11-18T19:50:22.991Z,9.51
2017-11-18T19:52:50.157Z,9.43
2017-11-18T19:55:16.535Z,9.38
2017-11-18T19:57:42.890Z,9.40
2017-11-18T20:00:09.336Z,9.35
2017-11-18T20:02:35.794Z,9.47
2017-11-18T20:05:02.249Z,9.45
2017-11-18T20:07:28.664Z,9.51
2017-11-18T20:09:55.917Z,9.54
2017-11-18T20:12:22.327Z,9.56
2017-11-18T20:14:48.790Z,9.53
2017-11-18T20:17:15.233Z,9.45
2017-11-18T20:19:41.656Z,9.32
2017-11-18T20:22:08.100Z,9.45
2017-11-18T20:24:34.636Z,9.44
2017-11-18T20:27:01.685Z,9.49
2017-11-18T20:29:28.126Z,9.52
2017-11-18T20:31:54.545Z,9.56
2017-11-18T20:34:20.988Z,9.57
2017-11-18T20:36:47.446Z,9.57
2017-11-18T20:39:13.972Z,9.51
2017-11-18T20:41:40.388Z,9.55
2017-11-18T20:44:07.621Z,9.56
2017-11-18T20:46:34.063Z,9.54
2017-11-18T20:49:00.515Z,9.56
2017-11-18T20:51:26.945Z,9.59
2017-11-18T20:53:53.379Z,9.60
2017-11-18T20:56:19.938Z,9.56
2017-11-18T20:58:46.283Z,9.49
2017-11-18T21:01:13.452Z,9.50
2017-11-18T21:03:39.911Z,9.54
2017-11-18T21:06:06.393Z,9.52
2017-11-18T21:08:32.809Z,9.44
2017-11-18T21:10:59.240Z,9.45
2017-11-18T21:13:25.681Z,9.47
2017-11-18T21:15:52.010Z,9.52
2017-11-18T21:18:19.271Z,9.55
2017-11-18T21:20:45.716Z,9.58
2017-11-18T21:23:12.130Z,9.60
2017-11-18T21:25:38.643Z,9.61
2017-11-18T21:28:05.112Z,9.63
2017-11-18T21:30:31.649Z,9.65
2017-11-18T21:32:58.074Z,9.64
2017-11-18T21:35:25.227Z,9.62
2017-11-18T21:37:51.557Z,9.58
2017-11-18T21:40:17.891Z,9.53
2017-11-18T21:42:44.335Z,9.61
2017-11-18T21:45:10.759Z,9.58
2017-11-18T21:47:37.224Z,9.61
2017-11-18T21:50:03.635Z,9.60
2017-11-18T21:52:30.792Z,9.58
2017-11-18T21:54:57.225Z,9.57
2017-11-18T21:57:23.676Z,9.56
2017-11-18T21:59:50.057Z,9.55
2017-11-18T22:02:16.492Z,9.56
2017-11-18T22:04:42.957Z,9.58
2017-11-18T22:07:09.391Z,9.60
2017-11-18T22:09:36.645Z,9.62
2017-11-18T22:12:03.019Z,9.64
2017-11-18T22:14:29.411Z,9.62
2017-11-18T22:16:55.956Z,9.59
2017-11-18T22:19:22.395Z,9.64
2017-11-18T22:21:48.816Z,9.61
2017-11-18T22:24:15.135Z,9.60
2017-11-18T22:26:42.401Z,9.57
2017-11-18T22:29:08.836Z,9.59
2017-11-18T22:31:35.280Z,9.58
2017-11-18T22:34:01.716Z,9.55
2017-11-18T22:36:28.149Z,9.55
2017-11-18T22:38:54.677Z,9.57
2017-11-18T22:41:21.112Z,9.52
2017-11-18T22:43:48.265Z,9.58
2017-11-18T22:46:14.699Z,9.58
2017-11-18T22:48:41.143Z,9.58
2017-11-18T22:51:07.678Z,9.53
2017-11-18T22:53:34.108Z,9.49
2017-11-18T22:56:00.508Z,9.45
2017-11-18T22:58:26.873Z,9.48
2017-11-18T23:00:54.111Z,9.47
2017-11-18T23:03:20.528Z,9.35
2017-11-18T23:05:47.003Z,9.38
2017-11-18T23:08:13.386Z,9.44
2017-11-18T23:10:39.798Z,9.43
2017-11-18T23:13:06.300Z,9.32
2017-11-18T23:15:32.742Z,9.42
2017-11-18T23:17:59.988Z,9.45
2017-11-18T23:20:26.428Z,9.43
2017-11-18T23:22:52.968Z,9.39
2017-11-18T23:25:19.393Z,9.38
2017-11-18T23:27:45.940Z,9.38
2017-11-18T23:30:12.374Z,9.36
2017-11-18T23:32:38.911Z,9.36
2017-11-18T23:35:06.063Z,9.38
2017-11-18T23:37:32.528Z,9.23
2017-11-18T23:39:58.862Z,9.36
2017-11-18T23:42:25.256Z,9.35
2017-11-18T23:44:51.690Z,9.34
2017-11-18T23:47:18.125Z,9.35
2017-11-18T23:49:44.513Z,9.38
2017-11-18T23:52:11.719Z,9.41
2017-11-18T23:54:38.146Z,9.41
2017-11-18T23:57:04.479Z,9.41
2017-11-18T23:59:30.848Z,9.40
